createdAt,value
2022-11-26T00:00:21.096Z,5.72
2022-11-26T00:03:04.026Z,6.60
2022-11-26T00:05:49.342Z,7.60
2022-11-26T00:08:33.948Z,6.63
2022-11-26T00:11:16.823Z,5.68
2022-11-26T00:13:59.569Z,6.60
2022-11-26T00:16:42.476Z,8.65
2022-11-26T00:19:25.238Z,5.30
2022-11-26T00:22:14.555Z,6.32
2022-11-26T00:24:57.339Z,5.80
2022-11-26T00:27:40.038Z,5.47
2022-11-26T00:30:25.096Z,6.60
2022-11-26T00:33:08.392Z,4.43
2022-11-26T00:35:52.640Z,4.95
2022-11-26T00:38:36.734Z,4.13
2022-11-26T00:41:20.671Z,6.13
2022-11-26T00:44:03.380Z,7.45
2022-11-26T00:46:46.109Z,4.47
2022-11-26T00:49:29.559Z,6.00
2022-11-26T00:52:21.675Z,5.10
2022-11-26T00:55:08.295Z,5.88
2022-11-26T00:57:51.088Z,4.85
2022-11-26T01:00:34.822Z,5.40
2022-11-26T01:03:17.492Z,5.60
2022-11-26T01:06:00.538Z,4.47
2022-11-26T01:08:43.184Z,5.60
2022-11-26T01:11:27.225Z,5.63
2022-11-26T01:14:14.280Z,4.38
2022-11-26T01:16:57.675Z,4.22
2022-11-26T01:19:40.365Z,5.20
2022-11-26T01:22:24.060Z,5.28
2022-11-26T01:25:06.923Z,4.15
2022-11-26T01:27:51.073Z,5.50
2022-11-26T01:30:34.275Z,3.72
2022-11-26T01:33:16.943Z,5.28
2022-11-26T01:35:59.597Z,5.38
2022-11-26T01:38:42.216Z,4.72
2022-11-26T01:41:34.174Z,4.63
2022-11-26T01:44:19.623Z,5.97
2022-11-26T01:47:02.403Z,5.75
2022-11-26T01:50:00.015Z,6.80
2022-11-26T01:52:42.889Z,5.32
2022-11-26T01:55:25.744Z,5.05
2022-11-26T01:58:11.504Z,5.20
2022-11-26T02:00:55.744Z,4.50
2022-11-26T02:03:41.187Z,5.53
2022-11-26T02:06:26.658Z,4.18
2022-11-26T02:09:10.532Z,4.38
2022-11-26T02:11:53.158Z,4.00
2022-11-26T02:14:37.883Z,4.22
2022-11-26T02:17:25.442Z,5.13
2022-11-26T02:20:24.645Z,4.30
2022-11-26T02:23:12.380Z,4.85
2022-11-26T02:26:02.891Z,4.45
2022-11-26T02:28:57.203Z,4.47
2022-11-26T02:31:43.831Z,4.65
2022-11-26T02:34:30.641Z,4.72
2022-11-26T02:37:19.675Z,4.65
2022-11-26T02:40:02.450Z,4.18
2022-11-26T02:42:45.194Z,4.72
2022-11-26T02:45:29.800Z,5.03
2022-11-26T02:48:15.790Z,5.30
2022-11-26T02:50:59.558Z,4.55
2022-11-26T02:53:42.916Z,5.15
2022-11-26T02:56:27.198Z,4.50
2022-11-26T02:59:10.173Z,4.97
2022-11-26T03:01:54.998Z,6.03
2022-11-26T03:04:40.837Z,5.28
2022-11-26T03:07:23.919Z,5.55
2022-11-26T03:10:08.409Z,4.85
2022-11-26T03:12:51.381Z,6.38
2022-11-26T03:15:34.054Z,6.55
2022-11-26T03:18:16.750Z,8.15
2022-11-26T03:21:01.123Z,6.63
2022-11-26T03:23:43.796Z,5.22
2022-11-26T03:26:26.439Z,7.22
2022-11-26T03:29:09.259Z,7.00
2022-11-26T03:31:52.050Z,6.78
2022-11-26T03:34:34.815Z,7.63
2022-11-26T03:37:18.842Z,7.47
2022-11-26T03:40:01.514Z,6.85
2022-11-26T03:42:44.463Z,8.15
2022-11-26T03:45:27.202Z,8.48
2022-11-26T03:48:10.076Z,6.72
2022-11-26T03:50:52.712Z,10.70
2022-11-26T03:53:36.705Z,9.45
2022-11-26T03:56:19.263Z,9.23
2022-11-26T03:59:01.915Z,7.22
2022-11-26T04:01:44.653Z,6.65
2022-11-26T04:04:27.453Z,6.57
2022-11-26T04:07:10.091Z,8.35
2022-11-26T04:09:54.161Z,6.85
2022-11-26T04:12:36.790Z,7.15
2022-11-26T04:15:19.613Z,7.95
2022-11-26T04:18:02.334Z,7.55
2022-11-26T04:20:48.749Z,7.93
2022-11-26T04:23:34.447Z,5.50
2022-11-26T04:26:18.475Z,5.70
2022-11-26T04:29:01.750Z,6.65
2022-11-26T04:31:44.885Z,4.20
2022-11-26T04:34:27.696Z,3.95
2022-11-26T04:37:10.351Z,4.30
2022-11-26T04:39:53.023Z,3.25
2022-11-26T04:42:37.176Z,4.13
2022-11-26T04:45:19.989Z,3.60
2022-11-26T04:48:02.700Z,4.18
2022-11-26T04:50:45.426Z,3.47
2022-11-26T04:53:28.088Z,3.00
2022-11-26T04:56:10.727Z,3.33
2022-11-26T04:58:54.772Z,2.38
2022-11-26T05:01:37.742Z,3.25
2022-11-26T05:04:20.625Z,3.40
2022-11-26T05:07:03.360Z,3.67
2022-11-26T05:09:46.038Z,3.33
2022-11-26T05:12:28.750Z,3.83
2022-11-26T05:15:13.012Z,3.85
2022-11-26T05:17:55.705Z,4.18
2022-11-26T05:20:38.384Z,4.05
2022-11-26T05:23:21.060Z,3.15
2022-11-26T05:26:03.752Z,3.95
2022-11-26T05:28:46.457Z,4.38
2022-11-26T05:31:31.204Z,5.82
2022-11-26T05:34:14.056Z,5.28
2022-11-26T05:36:56.825Z,5.03
2022-11-26T05:39:39.547Z,4.55
2022-11-26T05:42:22.306Z,5.20
2022-11-26T05:45:05.309Z,5.88
2022-11-26T05:47:49.294Z,5.05
2022-11-26T05:50:32.795Z,5.63
2022-11-26T05:53:15.525Z,4.60
2022-11-26T05:55:58.441Z,5.57
2022-11-26T05:58:42.947Z,5.78
2022-11-26T06:01:25.603Z,5.70
2022-11-26T06:04:09.737Z,6.00
2022-11-26T06:06:52.419Z,6.28
2022-11-26T06:09:35.266Z,7.43
2022-11-26T06:12:17.996Z,5.93
2022-11-26T06:15:00.634Z,6.18
2022-11-26T06:17:43.309Z,7.53
2022-11-26T06:20:27.325Z,7.18
2022-11-26T06:23:10.001Z,7.53
2022-11-26T06:25:52.639Z,6.97
2022-11-26T06:28:35.313Z,9.23
2022-11-26T06:31:17.996Z,7.72
2022-11-26T06:34:00.706Z,6.93
2022-11-26T06:36:44.850Z,7.50
2022-11-26T06:39:27.635Z,8.02
2022-11-26T06:42:10.307Z,6.45
2022-11-26T06:44:57.015Z,7.20
2022-11-26T06:47:42.190Z,7.82
2022-11-26T06:50:24.911Z,7.38
2022-11-26T06:53:09.015Z,8.00
2022-11-26T06:55:51.851Z,7.32
2022-11-26T06:58:34.627Z,7.35
2022-11-26T07:01:18.494Z,6.97
2022-11-26T07:04:01.636Z,8.48
2022-11-26T07:06:45.768Z,8.90
2022-11-26T07:09:29.819Z,8.27
2022-11-26T07:12:12.502Z,8.63
2022-11-26T07:14:55.244Z,8.80
2022-11-26T07:17:37.989Z,8.82
2022-11-26T07:20:20.791Z,9.63
2022-11-26T07:23:04.624Z,11.00
2022-11-26T07:25:48.678Z,9.25
2022-11-26T07:28:31.783Z,9.32
2022-11-26T07:31:17.080Z,8.18
2022-11-26T07:34:00.104Z,9.18
2022-11-26T07:36:43.592Z,10.65
2022-11-26T07:39:26.529Z,10.65
2022-11-26T07:42:10.667Z,10.13
2022-11-26T07:44:53.343Z,9.30
2022-11-26T07:47:36.117Z,8.65
2022-11-26T07:50:18.804Z,9.80
2022-11-26T07:53:01.459Z,11.63
2022-11-26T07:55:44.154Z,10.65
2022-11-26T07:58:29.461Z,12.00
2022-11-26T08:01:13.308Z,11.73
2022-11-26T08:03:56.715Z,11.52
2022-11-26T08:06:39.495Z,11.73
2022-11-26T08:09:22.218Z,11.73
2022-11-26T08:12:05.031Z,14.05
2022-11-26T08:14:49.146Z,11.38
2022-11-26T08:17:31.824Z,13.10
2022-11-26T08:20:14.645Z,12.85
2022-11-26T08:22:57.352Z,16.35
2022-11-26T08:25:59.234Z,13.10
2022-11-26T08:28:43.350Z,12.15
2022-11-26T08:31:28.193Z,12.02
2022-11-26T08:34:12.853Z,13.02
2022-11-26T08:36:55.602Z,11.63
2022-11-26T08:39:38.592Z,11.98
2022-11-26T08:42:21.314Z,11.02
2022-11-26T08:45:04.528Z,11.07
2022-11-26T08:47:48.588Z,15.57
2022-11-26T08:50:31.744Z,14.52
2022-11-26T08:53:14.557Z,14.43
2022-11-26T08:56:00.726Z,12.48
2022-11-26T08:58:45.040Z,14.80
2022-11-26T09:01:28.738Z,13.07
2022-11-26T09:04:12.915Z,13.98
2022-11-26T09:06:55.666Z,13.93
2022-11-26T09:09:38.484Z,16.27
2022-11-26T09:12:21.722Z,14.00
2022-11-26T09:15:04.671Z,13.95
2022-11-26T09:17:47.343Z,15.98
2022-11-26T09:20:31.406Z,15.88
2022-11-26T09:23:14.051Z,14.95
2022-11-26T09:25:56.821Z,12.80
2022-11-26T09:28:40.234Z,12.85
2022-11-26T09:31:22.997Z,16.10
2022-11-26T09:34:05.709Z,13.95
2022-11-26T09:36:49.839Z,14.23
2022-11-26T09:39:32.646Z,14.98
2022-11-26T09:42:21.796Z,13.60
2022-11-26T09:45:10.248Z,11.88
2022-11-26T09:47:54.170Z,15.75
2022-11-26T09:50:38.563Z,15.48
2022-11-26T09:53:25.596Z,12.73
2022-11-26T09:56:12.084Z,15.25
2022-11-26T09:58:57.728Z,14.77
2022-11-26T10:01:41.921Z,14.88
2022-11-26T10:04:25.819Z,14.05
2022-11-26T10:07:13.847Z,15.48
2022-11-26T10:10:01.732Z,16.60
2022-11-26T10:13:17.214Z,15.52
2022-11-26T10:15:57.588Z,15.38
2022-11-26T10:18:43.629Z,14.65
2022-11-26T10:21:57.161Z,16.52
2022-11-26T10:24:33.241Z,15.73
2022-11-26T10:27:18.595Z,14.95
2022-11-26T10:30:02.561Z,17.35
2022-11-26T10:32:46.460Z,16.85
2022-11-26T10:35:30.033Z,15.07
2022-11-26T10:38:12.760Z,16.95
2022-11-26T10:40:55.484Z,15.02
2022-11-26T10:43:39.564Z,16.42
2022-11-26T10:46:32.768Z,16.17
2022-11-26T10:49:23.771Z,14.90
2022-11-26T10:52:09.579Z,16.17
2022-11-26T10:55:08.034Z,15.60
2022-11-26T10:57:53.152Z,13.23
2022-11-26T11:00:39.987Z,14.82
2022-11-26T11:03:44.551Z,17.23
2022-11-26T11:06:29.025Z,14.20
2022-11-26T11:09:28.816Z,14.45
2022-11-26T11:12:17.774Z,18.80
2022-11-26T11:15:19.146Z,14.57
2022-11-26T11:18:04.602Z,15.05
2022-11-26T11:20:53.596Z,18.42
2022-11-26T11:24:00.574Z,18.17
2022-11-26T11:26:42.446Z,15.45
2022-11-26T11:29:33.091Z,16.75
2022-11-26T11:32:32.304Z,14.85
2022-11-26T11:35:26.464Z,13.80
2022-11-26T11:38:21.633Z,14.57
2022-11-26T11:41:06.064Z,14.95
2022-11-26T11:43:49.415Z,11.50
2022-11-26T11:46:45.422Z,14.75
2022-11-26T11:49:33.276Z,14.18
2022-11-26T11:52:22.355Z,11.77
2022-11-26T11:55:10.370Z,13.63
2022-11-26T11:58:04.483Z,14.13
2022-11-26T12:00:49.047Z,11.95
2022-11-26T12:03:47.110Z,15.40
2022-11-26T12:06:33.969Z,15.25
2022-11-26T12:09:22.870Z,14.82
2022-11-26T12:12:08.737Z,16.80
2022-11-26T12:14:52.736Z,14.02
2022-11-26T12:17:39.642Z,18.48
2022-11-26T12:20:26.926Z,17.23
2022-11-26T12:23:24.280Z,14.65
2022-11-26T12:26:14.911Z,16.00
2022-11-26T12:28:59.608Z,17.25
2022-11-26T12:31:44.651Z,14.25
2022-11-26T12:34:30.510Z,15.93
2022-11-26T12:37:16.725Z,16.27
2022-11-26T12:40:04.003Z,14.63
2022-11-26T12:42:53.733Z,16.80
2022-11-26T12:45:42.730Z,14.93
2022-11-26T12:48:33.088Z,21.63
2022-11-26T12:51:20.415Z,17.90
2022-11-26T12:54:14.638Z,16.60
2022-11-26T12:56:59.261Z,16.05
2022-11-26T12:59:47.152Z,19.90
2022-11-26T13:02:31.116Z,21.23
2022-11-26T13:05:16.715Z,19.33
2022-11-26T13:08:08.333Z,19.95
2022-11-26T13:11:04.781Z,21.15
2022-11-26T13:13:54.606Z,21.55
2022-11-26T13:16:41.815Z,20.23
2022-11-26T13:19:29.654Z,19.92
2022-11-26T13:22:19.938Z,18.83
2022-11-26T13:25:08.873Z,20.35
2022-11-26T13:27:58.360Z,17.77
2022-11-26T13:30:47.844Z,19.27
2022-11-26T13:33:49.463Z,17.23
2022-11-26T13:36:46.844Z,20.50
2022-11-26T13:39:40.736Z,21.85
2022-11-26T13:42:31.111Z,23.42
2022-11-26T13:45:29.798Z,21.20
2022-11-26T13:48:14.763Z,21.70
2022-11-26T13:51:00.652Z,22.35
2022-11-26T13:53:47.106Z,21.60
2022-11-26T13:56:32.318Z,17.70
2022-11-26T13:59:17.017Z,19.60
2022-11-26T14:01:59.994Z,18.90
2022-11-26T14:04:53.300Z,18.80
2022-11-26T14:07:36.202Z,20.05
2022-11-26T14:10:36.934Z,20.48
2022-11-26T14:13:21.201Z,19.23
2022-11-26T14:16:05.260Z,19.20
2022-11-26T14:18:56.657Z,21.35
2022-11-26T14:21:54.215Z,16.42
2022-11-26T14:24:56.916Z,17.85
2022-11-26T14:27:41.469Z,16.02
2022-11-26T14:30:26.640Z,16.90
2022-11-26T14:33:15.703Z,12.38
2022-11-26T14:35:59.350Z,12.32
2022-11-26T14:38:42.074Z,10.88
2022-11-26T14:41:24.758Z,11.18
2022-11-26T14:44:08.395Z,13.68
2022-11-26T14:46:53.913Z,12.50
2022-11-26T14:49:37.719Z,11.98
2022-11-26T14:52:22.789Z,12.43
2022-11-26T14:55:07.999Z,13.90
2022-11-26T14:57:52.658Z,13.32
2022-11-26T15:00:35.728Z,13.95
2022-11-26T15:03:23.487Z,18.30
2022-11-26T15:06:06.340Z,17.45
2022-11-26T15:08:49.245Z,18.52
2022-11-26T15:11:31.924Z,15.05
2022-11-26T15:14:24.003Z,20.67
2022-11-26T15:17:07.410Z,17.20
2022-11-26T15:19:52.610Z,19.25
2022-11-26T15:22:37.612Z,22.58
2022-11-26T15:25:45.289Z,20.02
2022-11-26T15:40:47.265Z,21.08
2022-11-26T15:43:31.684Z,18.42
2022-11-26T15:46:16.007Z,18.88
2022-11-26T15:49:00.031Z,21.48
2022-11-26T15:51:43.755Z,15.20
2022-11-26T15:54:43.354Z,16.17
2022-11-26T15:57:35.892Z,15.75
2022-11-26T16:00:22.323Z,17.83
2022-11-26T16:03:05.925Z,16.90
2022-11-26T16:05:54.497Z,19.15
2022-11-26T16:08:38.716Z,19.52
2022-11-26T16:11:23.687Z,18.65
2022-11-26T16:14:29.559Z,18.42
2022-11-26T16:17:14.181Z,18.65
2022-11-26T16:19:59.168Z,21.10
2022-11-26T16:22:46.583Z,18.58
2022-11-26T16:25:30.511Z,18.77
2022-11-26T16:28:15.189Z,20.58
2022-11-26T16:30:59.395Z,20.63
2022-11-26T16:33:42.300Z,23.52
2022-11-26T16:36:26.041Z,23.55
2022-11-26T16:39:09.554Z,30.33
2022-11-26T16:41:52.289Z,23.85
2022-11-26T16:44:34.981Z,25.73
2022-11-26T16:47:21.383Z,26.88
2022-11-26T16:50:04.621Z,20.63
2022-11-26T16:52:48.070Z,23.98
2022-11-26T16:55:30.862Z,24.75
2022-11-26T16:58:19.495Z,25.13
2022-11-26T17:01:02.334Z,22.48
2022-11-26T17:03:46.667Z,25.98
2022-11-26T17:06:31.106Z,24.85
2022-11-26T17:09:17.984Z,25.08
2022-11-26T17:12:00.793Z,28.65
2022-11-26T17:14:44.021Z,25.48
2022-11-26T17:17:30.033Z,26.73
2022-11-26T17:20:18.562Z,29.38
2022-11-26T17:23:01.306Z,23.83
2022-11-26T17:25:44.724Z,26.88
2022-11-26T17:28:27.852Z,30.83
2022-11-26T17:31:10.627Z,28.20
2022-11-26T17:33:53.307Z,28.02
2022-11-26T17:36:37.443Z,27.08
2022-11-26T17:39:20.112Z,29.00
2022-11-26T17:42:02.762Z,28.85
2022-11-26T17:44:45.669Z,29.05
2022-11-26T17:47:28.422Z,30.65
2022-11-26T17:50:15.689Z,30.67
2022-11-26T17:52:59.768Z,30.85
2022-11-26T17:55:42.467Z,28.05
2022-11-26T17:58:25.152Z,26.83
2022-11-26T18:01:07.970Z,28.33
2022-11-26T18:03:52.370Z,23.05
2022-11-26T18:06:39.570Z,27.20
2022-11-26T18:09:23.626Z,30.33
2022-11-26T18:12:07.377Z,27.58
2022-11-26T18:14:50.084Z,27.25
2022-11-26T18:17:32.910Z,29.13
2022-11-26T18:20:18.135Z,27.55
2022-11-26T18:23:01.513Z,30.08
2022-11-26T18:25:45.927Z,32.00
2022-11-26T18:28:28.683Z,28.95
2022-11-26T18:31:11.528Z,26.98
2022-11-26T18:33:54.526Z,33.88
2022-11-26T18:36:37.312Z,31.20
2022-11-26T18:39:19.962Z,34.35
2022-11-26T18:42:35.283Z,32.83
2022-11-26T18:45:07.889Z,34.70
2022-11-26T18:47:50.641Z,35.70
2022-11-26T18:50:33.435Z,28.67
2022-11-26T18:53:16.133Z,28.42
2022-11-26T18:55:59.386Z,26.30
2022-11-26T18:58:44.002Z,31.08
2022-11-26T19:01:27.584Z,31.27
2022-11-26T19:04:11.321Z,28.40
2022-11-26T19:06:54.016Z,33.70
2022-11-26T19:09:38.219Z,31.98
2022-11-26T19:12:21.126Z,30.15
2022-11-26T19:15:05.618Z,32.78
2022-11-26T19:17:48.790Z,29.65
2022-11-26T19:20:32.020Z,30.17
2022-11-26T19:23:15.356Z,28.77
2022-11-26T19:25:58.391Z,33.25
2022-11-26T19:28:41.476Z,29.42
2022-11-26T19:31:26.123Z,25.95
2022-11-26T19:34:10.297Z,31.25
2022-11-26T19:36:56.700Z,31.98
2022-11-26T19:39:40.429Z,30.42
2022-11-26T19:42:23.555Z,30.50
2022-11-26T19:45:06.634Z,28.00
2022-11-26T19:47:51.781Z,30.35
2022-11-26T19:50:34.501Z,31.35
2022-11-26T19:53:17.300Z,29.10
2022-11-26T19:56:01.877Z,26.65
2022-11-26T19:58:44.803Z,29.67
2022-11-26T20:01:30.351Z,29.52
2022-11-26T20:04:15.647Z,27.05
2022-11-26T20:06:59.056Z,26.38
2022-11-26T20:09:41.943Z,26.67
2022-11-26T20:12:24.838Z,30.65
2022-11-26T20:15:08.260Z,25.52
2022-11-26T20:17:51.019Z,30.20
2022-11-26T20:20:35.130Z,27.15
2022-11-26T20:23:17.946Z,31.75
2022-11-26T20:26:00.878Z,29.33
2022-11-26T20:28:43.762Z,26.60
2022-11-26T20:31:26.740Z,35.95
2022-11-26T20:34:09.597Z,29.10
2022-11-26T20:36:53.957Z,32.47
2022-11-26T20:39:36.862Z,28.35
2022-11-26T20:42:19.809Z,28.90
2022-11-26T20:45:02.567Z,31.08
2022-11-26T20:47:45.323Z,31.95
2022-11-26T20:50:28.050Z,34.63
2022-11-26T20:53:12.311Z,30.77
2022-11-26T20:55:56.445Z,32.63
2022-11-26T20:58:39.166Z,28.73
2022-11-26T21:01:23.077Z,28.65
2022-11-26T21:04:06.884Z,30.75
2022-11-26T21:06:49.751Z,35.42
2022-11-26T21:09:34.019Z,32.60
2022-11-26T21:12:16.875Z,27.60
2022-11-26T21:14:59.687Z,28.63
2022-11-26T21:17:42.467Z,32.92
2022-11-26T21:20:25.252Z,30.67
2022-11-26T21:23:08.174Z,33.30
2022-11-26T21:25:52.195Z,25.05
2022-11-26T21:28:35.077Z,27.50
2022-11-26T21:31:18.914Z,31.38
2022-11-26T21:34:02.458Z,26.50
2022-11-26T21:36:45.298Z,29.58
2022-11-26T21:39:27.985Z,27.45
2022-11-26T21:42:12.145Z,27.50
2022-11-26T21:44:54.862Z,32.67
2022-11-26T21:47:37.660Z,27.48
2022-11-26T21:50:20.706Z,29.80
2022-11-26T21:53:03.429Z,28.05
2022-11-26T21:55:46.250Z,24.98
2022-11-26T21:58:31.761Z,28.42
2022-11-26T22:01:15.965Z,27.02
2022-11-26T22:04:00.403Z,26.85
2022-11-26T22:06:43.569Z,29.52
2022-11-26T22:09:26.760Z,26.17
2022-11-26T22:12:11.256Z,27.90
2022-11-26T22:14:55.477Z,31.30
2022-11-26T22:17:38.229Z,29.15
2022-11-26T22:20:20.998Z,24.75
2022-11-26T22:23:03.660Z,25.25
2022-11-26T22:25:46.587Z,26.92
2022-11-26T22:28:30.276Z,23.42
2022-11-26T22:31:15.819Z,26.42
2022-11-26T22:33:59.718Z,26.02
2022-11-26T22:36:43.439Z,29.58
2022-11-26T22:39:26.184Z,29.48
2022-11-26T22:42:08.964Z,26.58
2022-11-26T22:44:51.700Z,26.75
2022-11-26T22:47:35.849Z,25.02
2022-11-26T22:50:19.205Z,27.95
2022-11-26T22:53:03.044Z,26.25
2022-11-26T22:55:50.242Z,23.05
2022-11-26T22:58:34.400Z,29.55
2022-11-26T23:01:20.095Z,23.13
2022-11-26T23:04:05.196Z,28.00
2022-11-26T23:06:47.978Z,26.73
2022-11-26T23:09:30.685Z,26.05
2022-11-26T23:12:13.430Z,23.38
2022-11-26T23:14:56.301Z,22.52
2022-11-26T23:17:39.045Z,24.77
2022-11-26T23:20:23.297Z,27.77
2022-11-26T23:23:06.425Z,23.60
2022-11-26T23:25:49.141Z,25.52
2022-11-26T23:28:32.165Z,25.27
2022-11-26T23:31:16.209Z,23.98
2022-11-26T23:33:59.054Z,22.80
2022-11-26T23:36:43.479Z,20.60
2022-11-26T23:39:26.317Z,23.15
2022-11-26T23:42:08.965Z,23.65
2022-11-26T23:44:51.677Z,24.00
2022-11-26T23:47:35.769Z,22.40
2022-11-26T23:50:18.563Z,23.27
2022-11-26T23:53:02.667Z,25.88
2022-11-26T23:55:45.448Z,22.40
2022-11-26T23:58:28.193Z,19.98
